sensor_id;sensor_type;location;lat;lon;timestamp;P1;durP1;ratioP1;P2;durP2;ratioP2
12832;SDS011;6483;51.310;4.462;2022-08-11T00:01:47;4.10;;;2.20;;
12832;SDS011;6483;51.310;4.462;2022-08-11T00:04:14;3.17;;;2.55;;
12832;SDS011;6483;51.310;4.462;2022-08-11T00:06:41;2.75;;;2.45;;
12832;SDS011;6483;51.310;4.462;2022-08-11T00:09:11;5.13;;;2.33;;
12832;SDS011;6483;51.310;4.462;2022-08-11T00:11:47;2.85;;;2.38;;
12832;SDS011;6483;51.310;4.462;2022-08-11T00:14:21;3.17;;;2.10;;
12832;SDS011;6483;51.310;4.462;2022-08-11T00:16:54;4.40;;;2.53;;
12832;SDS011;6483;51.310;4.462;2022-08-11T00:19:27;2.13;;;2.03;;
12832;SDS011;6483;51.310;4.462;2022-08-11T00:21:54;3.38;;;2.42;;
12832;SDS011;6483;51.310;4.462;2022-08-11T00:24:20;2.38;;;2.17;;
12832;SDS011;6483;51.310;4.462;2022-08-11T00:26:48;3.83;;;2.08;;
12832;SDS011;6483;51.310;4.462;2022-08-11T00:29:15;3.00;;;2.50;;
12832;SDS011;6483;51.310;4.462;2022-08-11T00:31:46;4.03;;;2.60;;
12832;SDS011;6483;51.310;4.462;2022-08-11T00:34:14;3.65;;;2.40;;
12832;SDS011;6483;51.310;4.462;2022-08-11T00:36:52;2.90;;;2.60;;
12832;SDS011;6483;51.310;4.462;2022-08-11T00:39:21;3.20;;;2.58;;
12832;SDS011;6483;51.310;4.462;2022-08-11T00:58:00;4.28;;;2.40;;
12832;SDS011;6483;51.310;4.462;2022-08-11T01:23:35;4.47;;;2.22;;
12832;SDS011;6483;51.310;4.462;2022-08-11T01:28:30;7.07;;;2.78;;
12832;SDS011;6483;51.310;4.462;2022-08-11T01:34:14;4.53;;;2.70;;
12832;SDS011;6483;51.310;4.462;2022-08-11T01:36:49;7.65;;;2.63;;
12832;SDS011;6483;51.310;4.462;2022-08-11T01:45:15;7.32;;;2.95;;
12832;SDS011;6483;51.310;4.462;2022-08-11T01:51:02;3.45;;;2.83;;
12832;SDS011;6483;51.310;4.462;2022-08-11T01:53:37;3.25;;;2.67;;
12832;SDS011;6483;51.310;4.462;2022-08-11T01:56:26;3.38;;;2.60;;
12832;SDS011;6483;51.310;4.462;2022-08-11T02:04:36;4.57;;;3.17;;
12832;SDS011;6483;51.310;4.462;2022-08-11T02:07:26;3.67;;;3.25;;
12832;SDS011;6483;51.310;4.462;2022-08-11T02:12:58;6.22;;;3.30;;
12832;SDS011;6483;51.310;4.462;2022-08-11T02:15:29;6.40;;;3.13;;
12832;SDS011;6483;51.310;4.462;2022-08-11T02:20:59;15.65;;;3.33;;
12832;SDS011;6483;51.310;4.462;2022-08-11T02:23:53;4.70;;;3.28;;
12832;SDS011;6483;51.310;4.462;2022-08-11T02:26:22;3.40;;;2.70;;
12832;SDS011;6483;51.310;4.462;2022-08-11T02:34:18;5.07;;;3.90;;
12832;SDS011;6483;51.310;4.462;2022-08-11T02:39:37;5.03;;;3.53;;
12832;SDS011;6483;51.310;4.462;2022-08-11T02:42:15;3.75;;;3.40;;
12832;SDS011;6483;51.310;4.462;2022-08-11T02:50:04;5.53;;;3.58;;
12832;SDS011;6483;51.310;4.462;2022-08-11T02:52:50;3.88;;;3.30;;
12832;SDS011;6483;51.310;4.462;2022-08-11T02:58:26;6.28;;;3.50;;
12832;SDS011;6483;51.310;4.462;2022-08-11T03:00:56;4.20;;;3.45;;
12832;SDS011;6483;51.310;4.462;2022-08-11T03:03:29;3.88;;;3.17;;
12832;SDS011;6483;51.310;4.462;2022-08-11T03:08:59;4.75;;;3.80;;
12832;SDS011;6483;51.310;4.462;2022-08-11T03:14:21;4.63;;;3.78;;
12832;SDS011;6483;51.310;4.462;2022-08-11T03:19:59;5.80;;;3.90;;
12832;SDS011;6483;51.310;4.462;2022-08-11T03:22:32;4.03;;;3.63;;
12832;SDS011;6483;51.310;4.462;2022-08-11T03:38:25;3.92;;;3.60;;
12832;SDS011;6483;51.310;4.462;2022-08-11T03:41:13;4.97;;;3.75;;
12832;SDS011;6483;51.310;4.462;2022-08-11T03:46:46;5.93;;;4.03;;
12832;SDS011;6483;51.310;4.462;2022-08-11T04:02:48;5.55;;;4.32;;
12832;SDS011;6483;51.310;4.462;2022-08-11T04:10:49;7.78;;;4.20;;
12832;SDS011;6483;51.310;4.462;2022-08-11T04:29:09;5.32;;;4.00;;
12832;SDS011;6483;51.310;4.462;2022-08-11T04:31:47;4.45;;;4.05;;
12832;SDS011;6483;51.310;4.462;2022-08-11T04:40:08;4.85;;;4.32;;
12832;SDS011;6483;51.310;4.462;2022-08-11T04:48:22;5.80;;;4.30;;
12832;SDS011;6483;51.310;4.462;2022-08-11T04:51:29;8.48;;;4.28;;
12832;SDS011;6483;51.310;4.462;2022-08-11T04:54:25;4.68;;;4.10;;
12832;SDS011;6483;51.310;4.462;2022-08-11T05:00:19;9.43;;;4.95;;
12832;SDS011;6483;51.310;4.462;2022-08-11T05:05:51;5.75;;;4.30;;
12832;SDS011;6483;51.310;4.462;2022-08-11T05:10:59;8.50;;;5.07;;
12832;SDS011;6483;51.310;4.462;2022-08-11T05:16:21;5.80;;;4.32;;
12832;SDS011;6483;51.310;4.462;2022-08-11T05:19:07;7.93;;;4.68;;
12832;SDS011;6483;51.310;4.462;2022-08-11T05:21:59;6.20;;;4.15;;
12832;SDS011;6483;51.310;4.462;2022-08-11T05:24:51;4.80;;;4.30;;
12832;SDS011;6483;51.310;4.462;2022-08-11T05:30:48;5.57;;;4.30;;
12832;SDS011;6483;51.310;4.462;2022-08-11T05:33:48;5.85;;;4.43;;
12832;SDS011;6483;51.310;4.462;2022-08-11T05:36:37;5.95;;;3.97;;
12832;SDS011;6483;51.310;4.462;2022-08-11T05:39:40;6.57;;;4.68;;
12832;SDS011;6483;51.310;4.462;2022-08-11T05:42:19;7.93;;;4.70;;
12832;SDS011;6483;51.310;4.462;2022-08-11T05:45:15;4.38;;;3.97;;
12832;SDS011;6483;51.310;4.462;2022-08-11T05:48:00;5.68;;;4.20;;
12832;SDS011;6483;51.310;4.462;2022-08-11T05:51:03;5.57;;;4.63;;
12832;SDS011;6483;51.310;4.462;2022-08-11T05:53:57;6.20;;;4.63;;
12832;SDS011;6483;51.310;4.462;2022-08-11T05:56:52;4.68;;;4.13;;
12832;SDS011;6483;51.310;4.462;2022-08-11T05:59:20;6.88;;;4.20;;
12832;SDS011;6483;51.310;4.462;2022-08-11T06:01:50;5.00;;;4.57;;
12832;SDS011;6483;51.310;4.462;2022-08-11T06:04:21;6.32;;;4.00;;
12832;SDS011;6483;51.310;4.462;2022-08-11T06:06:52;4.78;;;4.38;;
12832;SDS011;6483;51.310;4.462;2022-08-11T06:09:30;7.30;;;4.15;;
12832;SDS011;6483;51.310;4.462;2022-08-11T06:11:58;8.48;;;4.20;;
12832;SDS011;6483;51.310;4.462;2022-08-11T06:14:25;4.82;;;4.13;;
12832;SDS011;6483;51.310;4.462;2022-08-11T06:16:56;8.40;;;4.07;;
12832;SDS011;6483;51.310;4.462;2022-08-11T06:19:28;5.13;;;4.35;;
12832;SDS011;6483;51.310;4.462;2022-08-11T06:21:55;9.77;;;4.72;;
12832;SDS011;6483;51.310;4.462;2022-08-11T06:24:22;6.90;;;4.57;;
12832;SDS011;6483;51.310;4.462;2022-08-11T06:26:49;5.45;;;4.53;;
12832;SDS011;6483;51.310;4.462;2022-08-11T06:29:16;6.60;;;4.60;;
12832;SDS011;6483;51.310;4.462;2022-08-11T06:31:53;6.88;;;4.57;;
12832;SDS011;6483;51.310;4.462;2022-08-11T06:34:36;5.85;;;4.38;;
12832;SDS011;6483;51.310;4.462;2022-08-11T06:39:51;5.82;;;4.43;;
12832;SDS011;6483;51.310;4.462;2022-08-11T06:42:30;6.95;;;4.43;;
12832;SDS011;6483;51.310;4.462;2022-08-11T06:45:03;4.75;;;3.97;;
12832;SDS011;6483;51.310;4.462;2022-08-11T06:47:40;7.05;;;4.45;;
12832;SDS011;6483;51.310;4.462;2022-08-11T06:50:09;4.32;;;3.88;;
12832;SDS011;6483;51.310;4.462;2022-08-11T06:52:53;7.22;;;4.35;;
12832;SDS011;6483;51.310;4.462;2022-08-11T06:55:23;4.88;;;3.78;;
12832;SDS011;6483;51.310;4.462;2022-08-11T06:58:15;5.80;;;4.63;;
12832;SDS011;6483;51.310;4.462;2022-08-11T07:01:04;4.93;;;4.35;;
12832;SDS011;6483;51.310;4.462;2022-08-11T07:03:47;7.22;;;4.00;;
12832;SDS011;6483;51.310;4.462;2022-08-11T07:06:32;5.75;;;4.13;;
12832;SDS011;6483;51.310;4.462;2022-08-11T07:12:33;5.65;;;3.88;;
12832;SDS011;6483;51.310;4.462;2022-08-11T07:15:20;5.65;;;4.28;;
12832;SDS011;6483;51.310;4.462;2022-08-11T07:18:19;4.40;;;3.78;;
12832;SDS011;6483;51.310;4.462;2022-08-11T07:21:05;4.43;;;3.85;;
12832;SDS011;6483;51.310;4.462;2022-08-11T07:23:51;5.15;;;3.25;;
12832;SDS011;6483;51.310;4.462;2022-08-11T07:26:37;5.10;;;3.22;;
12832;SDS011;6483;51.310;4.462;2022-08-11T07:29:24;6.18;;;4.10;;
12832;SDS011;6483;51.310;4.462;2022-08-11T07:31:50;8.68;;;3.90;;
12832;SDS011;6483;51.310;4.462;2022-08-11T07:34:26;5.93;;;3.70;;
12832;SDS011;6483;51.310;4.462;2022-08-11T07:36:56;5.95;;;3.42;;
12832;SDS011;6483;51.310;4.462;2022-08-11T07:39:27;7.22;;;3.03;;
12832;SDS011;6483;51.310;4.462;2022-08-11T07:41:56;5.05;;;3.28;;
12832;SDS011;6483;51.310;4.462;2022-08-11T07:44:26;6.88;;;3.30;;
12832;SDS011;6483;51.310;4.462;2022-08-11T07:46:56;5.15;;;2.80;;
12832;SDS011;6483;51.310;4.462;2022-08-11T07:49:43;3.90;;;2.70;;
12832;SDS011;6483;51.310;4.462;2022-08-11T07:52:29;4.43;;;3.03;;
12832;SDS011;6483;51.310;4.462;2022-08-11T07:55:02;8.65;;;3.17;;
12832;SDS011;6483;51.310;4.462;2022-08-11T07:57:32;7.88;;;3.20;;
12832;SDS011;6483;51.310;4.462;2022-08-11T08:00:18;4.97;;;2.75;;
12832;SDS011;6483;51.310;4.462;2022-08-11T08:03:03;6.90;;;2.97;;
12832;SDS011;6483;51.310;4.462;2022-08-11T08:05:49;4.95;;;3.05;;
12832;SDS011;6483;51.310;4.462;2022-08-11T08:08:34;6.28;;;3.00;;
12832;SDS011;6483;51.310;4.462;2022-08-11T08:11:19;7.22;;;3.00;;
12832;SDS011;6483;51.310;4.462;2022-08-11T08:14:05;8.07;;;2.78;;
12832;SDS011;6483;51.310;4.462;2022-08-11T08:16:51;4.93;;;2.70;;
12832;SDS011;6483;51.310;4.462;2022-08-11T08:19:36;3.88;;;2.53;;
12832;SDS011;6483;51.310;4.462;2022-08-11T08:22:03;5.90;;;2.53;;
12832;SDS011;6483;51.310;4.462;2022-08-11T08:24:33;5.57;;;2.28;;
12832;SDS011;6483;51.310;4.462;2022-08-11T08:26:59;4.57;;;2.30;;
12832;SDS011;6483;51.310;4.462;2022-08-11T08:29:27;4.25;;;2.92;;
12832;SDS011;6483;51.310;4.462;2022-08-11T08:32:32;4.38;;;2.28;;
12832;SDS011;6483;51.310;4.462;2022-08-11T08:35:04;5.72;;;2.40;;
12832;SDS011;6483;51.310;4.462;2022-08-11T08:37:32;2.92;;;2.40;;
12832;SDS011;6483;51.310;4.462;2022-08-11T08:39:58;6.40;;;2.47;;
12832;SDS011;6483;51.310;4.462;2022-08-11T08:42:28;5.72;;;2.35;;
12832;SDS011;6483;51.310;4.462;2022-08-11T08:45:05;7.97;;;2.50;;
12832;SDS011;6483;51.310;4.462;2022-08-11T08:47:51;3.85;;;2.38;;
12832;SDS011;6483;51.310;4.462;2022-08-11T08:50:22;2.38;;;1.90;;
12832;SDS011;6483;51.310;4.462;2022-08-11T08:53:16;7.75;;;2.40;;
12832;SDS011;6483;51.310;4.462;2022-08-11T08:55:44;3.80;;;2.10;;
12832;SDS011;6483;51.310;4.462;2022-08-11T08:58:10;3.13;;;2.50;;
12832;SDS011;6483;51.310;4.462;2022-08-11T09:00:41;4.72;;;2.30;;
12832;SDS011;6483;51.310;4.462;2022-08-11T09:03:09;4.32;;;2.28;;
12832;SDS011;6483;51.310;4.462;2022-08-11T09:05:35;2.92;;;1.92;;
12832;SDS011;6483;51.310;4.462;2022-08-11T09:08:03;4.13;;;2.00;;
12832;SDS011;6483;51.310;4.462;2022-08-11T09:10:30;5.20;;;1.95;;
12832;SDS011;6483;51.310;4.462;2022-08-11T09:12:57;4.05;;;1.95;;
12832;SDS011;6483;51.310;4.462;2022-08-11T09:15:24;5.75;;;2.30;;
12832;SDS011;6483;51.310;4.462;2022-08-11T09:17:56;4.28;;;2.13;;
12832;SDS011;6483;51.310;4.462;2022-08-11T09:20:30;7.35;;;2.25;;
12832;SDS011;6483;51.310;4.462;2022-08-11T09:23:02;6.18;;;2.33;;
12832;SDS011;6483;51.310;4.462;2022-08-11T09:25:47;3.53;;;2.05;;
12832;SDS011;6483;51.310;4.462;2022-08-11T09:28:34;4.72;;;2.33;;
12832;SDS011;6483;51.310;4.462;2022-08-11T09:31:00;2.88;;;2.00;;
12832;SDS011;6483;51.310;4.462;2022-08-11T09:33:27;2.90;;;2.00;;
12832;SDS011;6483;51.310;4.462;2022-08-11T09:35:56;3.67;;;2.33;;
12832;SDS011;6483;51.310;4.462;2022-08-11T09:38:45;4.93;;;2.22;;
12832;SDS011;6483;51.310;4.462;2022-08-11T09:41:31;4.35;;;2.10;;
12832;SDS011;6483;51.310;4.462;2022-08-11T09:43:57;3.25;;;1.90;;
12832;SDS011;6483;51.310;4.462;2022-08-11T09:46:44;5.35;;;2.47;;
12832;SDS011;6483;51.310;4.462;2022-08-11T09:49:10;4.28;;;1.95;;
12832;SDS011;6483;51.310;4.462;2022-08-11T09:51:37;7.22;;;2.20;;
12832;SDS011;6483;51.310;4.462;2022-08-11T09:54:06;3.92;;;2.28;;
12832;SDS011;6483;51.310;4.462;2022-08-11T09:56:32;4.30;;;2.13;;
12832;SDS011;6483;51.310;4.462;2022-08-11T09:59:18;2.90;;;1.90;;
12832;SDS011;6483;51.310;4.462;2022-08-11T10:01:46;4.47;;;2.30;;
12832;SDS011;6483;51.310;4.462;2022-08-11T10:04:22;3.33;;;2.42;;
12832;SDS011;6483;51.310;4.462;2022-08-11T10:07:02;3.38;;;2.13;;
12832;SDS011;6483;51.310;4.462;2022-08-11T10:12:13;5.05;;;2.20;;
12832;SDS011;6483;51.310;4.462;2022-08-11T10:14:47;4.35;;;1.85;;
12832;SDS011;6483;51.310;4.462;2022-08-11T10:17:33;5.15;;;2.13;;
12832;SDS011;6483;51.310;4.462;2022-08-11T10:20:02;4.80;;;2.25;;
12832;SDS011;6483;51.310;4.462;2022-08-11T10:22:29;4.10;;;2.20;;
12832;SDS011;6483;51.310;4.462;2022-08-11T10:25:14;4.70;;;1.98;;
12832;SDS011;6483;51.310;4.462;2022-08-11T10:28:01;4.13;;;1.98;;
12832;SDS011;6483;51.310;4.462;2022-08-11T10:30:28;2.30;;;1.70;;
12832;SDS011;6483;51.310;4.462;2022-08-11T10:33:13;5.57;;;2.38;;
12832;SDS011;6483;51.310;4.462;2022-08-11T10:35:57;6.60;;;2.00;;
12832;SDS011;6483;51.310;4.462;2022-08-11T10:38:28;5.78;;;2.28;;
12832;SDS011;6483;51.310;4.462;2022-08-11T10:40:54;2.38;;;1.98;;
12832;SDS011;6483;51.310;4.462;2022-08-11T10:43:39;2.45;;;2.10;;
12832;SDS011;6483;51.310;4.462;2022-08-11T10:46:06;3.67;;;2.15;;
12832;SDS011;6483;51.310;4.462;2022-08-11T10:48:53;3.83;;;2.20;;
12832;SDS011;6483;51.310;4.462;2022-08-11T10:51:20;4.13;;;2.20;;
12832;SDS011;6483;51.310;4.462;2022-08-11T10:54:10;3.72;;;2.40;;
12832;SDS011;6483;51.310;4.462;2022-08-11T10:56:55;3.17;;;2.30;;
12832;SDS011;6483;51.310;4.462;2022-08-11T10:59:40;7.20;;;2.03;;
12832;SDS011;6483;51.310;4.462;2022-08-11T11:02:09;4.10;;;2.13;;
12832;SDS011;6483;51.310;4.462;2022-08-11T11:04:40;7.15;;;2.08;;
12832;SDS011;6483;51.310;4.462;2022-08-11T11:07:21;5.18;;;1.98;;
12832;SDS011;6483;51.310;4.462;2022-08-11T11:09:58;3.33;;;2.25;;
12832;SDS011;6483;51.310;4.462;2022-08-11T11:12:28;3.25;;;2.03;;
12832;SDS011;6483;51.310;4.462;2022-08-11T11:15:15;5.88;;;2.30;;
12832;SDS011;6483;51.310;4.462;2022-08-11T11:18:13;3.40;;;2.08;;
12832;SDS011;6483;51.310;4.462;2022-08-11T11:20:52;2.67;;;2.10;;
12832;SDS011;6483;51.310;4.462;2022-08-11T11:36:31;2.00;;;1.80;;
12832;SDS011;6483;51.310;4.462;2022-08-11T11:39:03;4.93;;;1.92;;
12832;SDS011;6483;51.310;4.462;2022-08-11T11:41:31;5.88;;;2.10;;
12832;SDS011;6483;51.310;4.462;2022-08-11T11:43:57;2.38;;;1.92;;
12832;SDS011;6483;51.310;4.462;2022-08-11T11:46:26;3.83;;;1.88;;
12832;SDS011;6483;51.310;4.462;2022-08-11T11:48:56;3.75;;;1.70;;
12832;SDS011;6483;51.310;4.462;2022-08-11T11:51:24;2.10;;;2.00;;
12832;SDS011;6483;51.310;4.462;2022-08-11T11:53:54;2.08;;;1.80;;
12832;SDS011;6483;51.310;4.462;2022-08-11T11:56:21;5.50;;;2.05;;
12832;SDS011;6483;51.310;4.462;2022-08-11T11:58:49;2.10;;;1.90;;
12832;SDS011;6483;51.310;4.462;2022-08-11T12:01:34;5.13;;;2.53;;
12832;SDS011;6483;51.310;4.462;2022-08-11T12:04:00;3.28;;;1.80;;
12832;SDS011;6483;51.310;4.462;2022-08-11T12:06:30;4.60;;;2.13;;
12832;SDS011;6483;51.310;4.462;2022-08-11T12:08:56;2.97;;;1.92;;
12832;SDS011;6483;51.310;4.462;2022-08-11T12:11:26;5.50;;;2.13;;
12832;SDS011;6483;51.310;4.462;2022-08-11T12:14:20;5.10;;;2.00;;
12832;SDS011;6483;51.310;4.462;2022-08-11T12:16:51;3.75;;;2.30;;
12832;SDS011;6483;51.310;4.462;2022-08-11T12:19:17;2.13;;;1.80;;
12832;SDS011;6483;51.310;4.462;2022-08-11T12:21:45;1.95;;;1.85;;
12832;SDS011;6483;51.310;4.462;2022-08-11T12:24:31;4.38;;;2.03;;
12832;SDS011;6483;51.310;4.462;2022-08-11T12:27:16;2.58;;;1.90;;
12832;SDS011;6483;51.310;4.462;2022-08-11T12:29:49;8.13;;;2.05;;
12832;SDS011;6483;51.310;4.462;2022-08-11T12:32:16;3.55;;;1.80;;
12832;SDS011;6483;51.310;4.462;2022-08-11T12:34:43;2.38;;;1.70;;
12832;SDS011;6483;51.310;4.462;2022-08-11T12:37:09;6.00;;;1.80;;
12832;SDS011;6483;51.310;4.462;2022-08-11T12:39:37;6.90;;;1.98;;
12832;SDS011;6483;51.310;4.462;2022-08-11T12:42:22;3.83;;;2.00;;
12832;SDS011;6483;51.310;4.462;2022-08-11T12:45:09;6.50;;;2.17;;
12832;SDS011;6483;51.310;4.462;2022-08-11T12:51:00;4.47;;;1.83;;
12832;SDS011;6483;51.310;4.462;2022-08-11T12:53:50;2.75;;;1.58;;
12832;SDS011;6483;51.310;4.462;2022-08-11T12:56:17;2.25;;;1.67;;
12832;SDS011;6483;51.310;4.462;2022-08-11T12:59:03;2.95;;;1.58;;
12832;SDS011;6483;51.310;4.462;2022-08-11T13:01:48;3.22;;;1.60;;
12832;SDS011;6483;51.310;4.462;2022-08-11T13:04:33;1.52;;;1.42;;
12832;SDS011;6483;51.310;4.462;2022-08-11T13:07:18;2.25;;;1.55;;
12832;SDS011;6483;51.310;4.462;2022-08-11T13:09:44;1.83;;;1.70;;
12832;SDS011;6483;51.310;4.462;2022-08-11T13:12:11;4.72;;;1.75;;
12832;SDS011;6483;51.310;4.462;2022-08-11T13:14:57;3.50;;;1.52;;
12832;SDS011;6483;51.310;4.462;2022-08-11T13:17:24;3.80;;;1.70;;
12832;SDS011;6483;51.310;4.462;2022-08-11T13:19:57;1.80;;;1.63;;
12832;SDS011;6483;51.310;4.462;2022-08-11T13:22:23;2.60;;;1.50;;
12832;SDS011;6483;51.310;4.462;2022-08-11T13:24:53;2.10;;;1.40;;
12832;SDS011;6483;51.310;4.462;2022-08-11T13:27:23;3.80;;;1.70;;
12832;SDS011;6483;51.310;4.462;2022-08-11T13:29:49;5.47;;;1.90;;
12832;SDS011;6483;51.310;4.462;2022-08-11T13:32:37;3.63;;;1.67;;
12832;SDS011;6483;51.310;4.462;2022-08-11T13:35:04;3.22;;;1.73;;
12832;SDS011;6483;51.310;4.462;2022-08-11T13:37:31;3.40;;;1.77;;
12832;SDS011;6483;51.310;4.462;2022-08-11T13:40:00;2.42;;;1.77;;
12832;SDS011;6483;51.310;4.462;2022-08-11T13:42:26;4.13;;;1.50;;
12832;SDS011;6483;51.310;4.462;2022-08-11T13:44:57;5.05;;;1.60;;
12832;SDS011;6483;51.310;4.462;2022-08-11T13:47:23;1.42;;;1.33;;
12832;SDS011;6483;51.310;4.462;2022-08-11T13:49:50;3.85;;;1.67;;
12832;SDS011;6483;51.310;4.462;2022-08-11T13:52:17;2.55;;;1.38;;
12832;SDS011;6483;51.310;4.462;2022-08-11T13:54:45;2.28;;;1.52;;
12832;SDS011;6483;51.310;4.462;2022-08-11T13:57:13;2.45;;;1.70;;
12832;SDS011;6483;51.310;4.462;2022-08-11T13:59:40;1.77;;;1.60;;
12832;SDS011;6483;51.310;4.462;2022-08-11T14:02:15;2.50;;;1.55;;
12832;SDS011;6483;51.310;4.462;2022-08-11T14:04:45;4.43;;;1.70;;
12832;SDS011;6483;51.310;4.462;2022-08-11T14:07:13;5.82;;;1.70;;
12832;SDS011;6483;51.310;4.462;2022-08-11T14:09:55;4.20;;;1.67;;
12832;SDS011;6483;51.310;4.462;2022-08-11T14:12:26;2.08;;;1.50;;
12832;SDS011;6483;51.310;4.462;2022-08-11T14:17:58;6.85;;;2.42;;
12832;SDS011;6483;51.310;4.462;2022-08-11T14:20:30;2.53;;;1.58;;
12832;SDS011;6483;51.310;4.462;2022-08-11T14:23:15;3.65;;;1.60;;
12832;SDS011;6483;51.310;4.462;2022-08-11T14:25:41;1.73;;;1.55;;
12832;SDS011;6483;51.310;4.462;2022-08-11T14:28:27;2.50;;;1.70;;
12832;SDS011;6483;51.310;4.462;2022-08-11T14:30:56;3.10;;;1.48;;
12832;SDS011;6483;51.310;4.462;2022-08-11T14:33:22;2.20;;;1.60;;
12832;SDS011;6483;51.310;4.462;2022-08-11T14:35:48;2.67;;;1.70;;
12832;SDS011;6483;51.310;4.462;2022-08-11T14:38:15;3.03;;;1.50;;
12832;SDS011;6483;51.310;4.462;2022-08-11T14:40:45;4.50;;;1.50;;
12832;SDS011;6483;51.310;4.462;2022-08-11T14:43:30;2.22;;;2.03;;
12832;SDS011;6483;51.310;4.462;2022-08-11T14:46:15;3.88;;;1.70;;
12832;SDS011;6483;51.310;4.462;2022-08-11T14:49:00;6.05;;;1.60;;
12832;SDS011;6483;51.310;4.462;2022-08-11T14:51:26;3.92;;;1.75;;
12832;SDS011;6483;51.310;4.462;2022-08-11T14:53:53;5.07;;;2.10;;
12832;SDS011;6483;51.310;4.462;2022-08-11T14:56:39;3.03;;;2.47;;
12832;SDS011;6483;51.310;4.462;2022-08-11T14:59:08;2.95;;;1.73;;
12832;SDS011;6483;51.310;4.462;2022-08-11T15:01:35;3.22;;;1.65;;
12832;SDS011;6483;51.310;4.462;2022-08-11T15:04:19;2.88;;;1.48;;
12832;SDS011;6483;51.310;4.462;2022-08-11T15:06:46;1.98;;;1.40;;
12832;SDS011;6483;51.310;4.462;2022-08-11T15:09:12;2.85;;;1.42;;
12832;SDS011;6483;51.310;4.462;2022-08-11T15:11:48;4.50;;;1.80;;
12832;SDS011;6483;51.310;4.462;2022-08-11T15:14:35;2.40;;;1.73;;
12832;SDS011;6483;51.310;4.462;2022-08-11T15:17:20;4.70;;;1.60;;
12832;SDS011;6483;51.310;4.462;2022-08-11T15:19:47;2.53;;;1.55;;
12832;SDS011;6483;51.310;4.462;2022-08-11T15:22:32;5.18;;;1.70;;
12832;SDS011;6483;51.310;4.462;2022-08-11T15:25:17;3.28;;;1.60;;
12832;SDS011;6483;51.310;4.462;2022-08-11T15:27:46;5.05;;;2.40;;
12832;SDS011;6483;51.310;4.462;2022-08-11T15:30:30;2.85;;;2.05;;
12832;SDS011;6483;51.310;4.462;2022-08-11T15:33:17;2.85;;;1.98;;
12832;SDS011;6483;51.310;4.462;2022-08-11T15:36:04;4.05;;;1.73;;
12832;SDS011;6483;51.310;4.462;2022-08-11T15:39:00;2.20;;;1.83;;
12832;SDS011;6483;51.310;4.462;2022-08-11T15:41:28;4.85;;;2.10;;
12832;SDS011;6483;51.310;4.462;2022-08-11T15:44:18;2.35;;;1.65;;
12832;SDS011;6483;51.310;4.462;2022-08-11T15:47:07;6.70;;;2.00;;
12832;SDS011;6483;51.310;4.462;2022-08-11T15:49:37;2.65;;;1.85;;
12832;SDS011;6483;51.310;4.462;2022-08-11T15:54:31;2.08;;;1.67;;
12832;SDS011;6483;51.310;4.462;2022-08-11T15:57:01;3.20;;;2.00;;
12832;SDS011;6483;51.310;4.462;2022-08-11T15:59:33;3.75;;;1.80;;
12832;SDS011;6483;51.310;4.462;2022-08-11T16:02:21;4.93;;;1.85;;
12832;SDS011;6483;51.310;4.462;2022-08-11T16:05:13;2.45;;;1.80;;
12832;SDS011;6483;51.310;4.462;2022-08-11T16:07:41;2.20;;;2.00;;
12832;SDS011;6483;51.310;4.462;2022-08-11T16:10:13;3.90;;;2.75;;
12832;SDS011;6483;51.310;4.462;2022-08-11T16:12:47;5.40;;;2.40;;
12832;SDS011;6483;51.310;4.462;2022-08-11T16:15:29;3.67;;;2.08;;
12832;SDS011;6483;51.310;4.462;2022-08-11T16:18:15;3.40;;;2.03;;
12832;SDS011;6483;51.310;4.462;2022-08-11T16:20:41;2.53;;;2.33;;
12832;SDS011;6483;51.310;4.462;2022-08-11T16:23:11;5.68;;;2.75;;
12832;SDS011;6483;51.310;4.462;2022-08-11T16:25:41;5.30;;;2.50;;
12832;SDS011;6483;51.310;4.462;2022-08-11T16:28:07;5.85;;;2.10;;
12832;SDS011;6483;51.310;4.462;2022-08-11T16:30:36;5.22;;;2.45;;
12832;SDS011;6483;51.310;4.462;2022-08-11T16:33:03;3.63;;;2.05;;
12832;SDS011;6483;51.310;4.462;2022-08-11T16:35:34;2.58;;;2.28;;
12832;SDS011;6483;51.310;4.462;2022-08-11T16:38:24;10.15;;;2.10;;
12832;SDS011;6483;51.310;4.462;2022-08-11T16:41:07;6.47;;;2.38;;
12832;SDS011;6483;51.310;4.462;2022-08-11T16:43:38;3.10;;;2.20;;
12832;SDS011;6483;51.310;4.462;2022-08-11T16:46:24;2.10;;;1.90;;
12832;SDS011;6483;51.310;4.462;2022-08-11T16:49:23;4.82;;;2.63;;
12832;SDS011;6483;51.310;4.462;2022-08-11T16:51:51;3.47;;;1.90;;
12832;SDS011;6483;51.310;4.462;2022-08-11T16:54:18;1.95;;;1.80;;
12832;SDS011;6483;51.310;4.462;2022-08-11T16:56:51;2.85;;;1.80;;
12832;SDS011;6483;51.310;4.462;2022-08-11T16:59:25;5.18;;;1.75;;
12832;SDS011;6483;51.310;4.462;2022-08-11T17:04:59;2.90;;;1.95;;
12832;SDS011;6483;51.310;4.462;2022-08-11T17:07:45;3.95;;;1.75;;
12832;SDS011;6483;51.310;4.462;2022-08-11T17:10:49;4.10;;;1.73;;
12832;SDS011;6483;51.310;4.462;2022-08-11T17:13:40;5.18;;;1.85;;
12832;SDS011;6483;51.310;4.462;2022-08-11T17:16:09;1.95;;;1.52;;
12832;SDS011;6483;51.310;4.462;2022-08-11T17:21:24;3.60;;;1.70;;
12832;SDS011;6483;51.310;4.462;2022-08-11T17:24:09;6.28;;;2.00;;
12832;SDS011;6483;51.310;4.462;2022-08-11T17:26:41;2.60;;;1.67;;
12832;SDS011;6483;51.310;4.462;2022-08-11T17:29:39;2.85;;;1.77;;
12832;SDS011;6483;51.310;4.462;2022-08-11T17:32:17;2.70;;;1.80;;
12832;SDS011;6483;51.310;4.462;2022-08-11T17:35:05;4.32;;;1.90;;
12832;SDS011;6483;51.310;4.462;2022-08-11T17:37:51;5.15;;;1.85;;
12832;SDS011;6483;51.310;4.462;2022-08-11T17:40:20;2.70;;;1.85;;
12832;SDS011;6483;51.310;4.462;2022-08-11T17:42:50;2.67;;;1.90;;
12832;SDS011;6483;51.310;4.462;2022-08-11T17:45:39;5.03;;;1.77;;
12832;SDS011;6483;51.310;4.462;2022-08-11T17:48:29;2.78;;;1.85;;
12832;SDS011;6483;51.310;4.462;2022-08-11T17:51:00;3.20;;;2.00;;
12832;SDS011;6483;51.310;4.462;2022-08-11T17:53:36;3.30;;;1.88;;
12832;SDS011;6483;51.310;4.462;2022-08-11T17:56:22;4.10;;;1.65;;
12832;SDS011;6483;51.310;4.462;2022-08-11T17:59:09;3.50;;;1.98;;
12832;SDS011;6483;51.310;4.462;2022-08-11T18:01:53;3.53;;;1.67;;
12832;SDS011;6483;51.310;4.462;2022-08-11T18:04:20;2.25;;;1.88;;
12832;SDS011;6483;51.310;4.462;2022-08-11T18:06:47;6.40;;;2.30;;
12832;SDS011;6483;51.310;4.462;2022-08-11T18:09:15;2.20;;;2.00;;
12832;SDS011;6483;51.310;4.462;2022-08-11T18:12:01;3.65;;;1.80;;
12832;SDS011;6483;51.310;4.462;2022-08-11T18:14:47;2.88;;;1.70;;
12832;SDS011;6483;51.310;4.462;2022-08-11T18:17:33;2.25;;;1.40;;
12832;SDS011;6483;51.310;4.462;2022-08-11T18:20:18;2.50;;;2.10;;
12832;SDS011;6483;51.310;4.462;2022-08-11T18:23:06;17.52;;;2.00;;
12832;SDS011;6483;51.310;4.462;2022-08-11T18:25:51;5.32;;;2.10;;
12832;SDS011;6483;51.310;4.462;2022-08-11T18:28:42;4.45;;;2.20;;
12832;SDS011;6483;51.310;4.462;2022-08-11T18:31:30;3.13;;;1.92;;
12832;SDS011;6483;51.310;4.462;2022-08-11T18:34:17;4.65;;;2.53;;
12832;SDS011;6483;51.310;4.462;2022-08-11T18:37:05;3.22;;;2.20;;
12832;SDS011;6483;51.310;4.462;2022-08-11T18:40:01;4.88;;;2.05;;
12832;SDS011;6483;51.310;4.462;2022-08-11T18:42:47;4.53;;;2.00;;
12832;SDS011;6483;51.310;4.462;2022-08-11T18:45:33;9.63;;;2.78;;
12832;SDS011;6483;51.310;4.462;2022-08-11T18:48:21;10.55;;;3.45;;
12832;SDS011;6483;51.310;4.462;2022-08-11T18:51:07;6.10;;;3.10;;
12832;SDS011;6483;51.310;4.462;2022-08-11T18:53:55;8.00;;;3.40;;
12832;SDS011;6483;51.310;4.462;2022-08-11T18:56:42;3.03;;;2.05;;
12832;SDS011;6483;51.310;4.462;2022-08-11T18:59:28;4.93;;;3.08;;
12832;SDS011;6483;51.310;4.462;2022-08-11T19:02:14;4.20;;;3.15;;
12832;SDS011;6483;51.310;4.462;2022-08-11T19:05:03;6.25;;;3.30;;
12832;SDS011;6483;51.310;4.462;2022-08-11T19:07:49;7.68;;;3.42;;
12832;SDS011;6483;51.310;4.462;2022-08-11T19:10:34;6.50;;;3.50;;
12832;SDS011;6483;51.310;4.462;2022-08-11T19:13:19;6.32;;;3.15;;
12832;SDS011;6483;51.310;4.462;2022-08-11T19:16:05;4.82;;;2.72;;
12832;SDS011;6483;51.310;4.462;2022-08-11T19:18:50;3.75;;;2.65;;
12832;SDS011;6483;51.310;4.462;2022-08-11T19:21:38;4.80;;;2.50;;
12832;SDS011;6483;51.310;4.462;2022-08-11T19:24:24;4.90;;;3.03;;